Time;durP1;ratioP1;P1;durP2;ratioP2;P2;SDS_P1;SDS_P2;PMS_P1;PMS_P2;Temp;Humidity;BMP_temperature;BMP_pressure;BME280_temperature;BME280_humidity;BME280_pressure;Samples;Min_cycle;Max_cycle;Signal;HPM_P1;HPM_P2
2021/03/11 00:02:16;;;;;;;15.88;8.32;;;3.30;99.90;;;;;;5049830;28;20406;-72
2021/03/11 00:04:44;;;;;;;20.60;8.68;;;3.40;99.90;;;;;;5047765;28;20045;-72
2021/03/11 00:07:09;;;;;;;23.70;10.25;;;3.40;99.90;;;;;;5048799;28;20151;-72
2021/03/11 00:09:35;;;;;;;16.80;8.82;;;3.40;99.90;;;;;;5051034;28;20119;-72
2021/03/11 00:12:01;;;;;;;22.15;9.50;;;3.40;99.90;;;;;;5081485;28;20044;-72
2021/03/11 00:14:27;;;;;;;23.08;10.25;;;3.40;99.90;;;;;;5048215;28;20033;-72
2021/03/11 00:16:52;;;;;;;21.90;9.57;;;3.50;99.90;;;;;;5047416;28;20531;-72
2021/03/11 00:19:18;;;;;;;24.30;10.38;;;3.50;99.90;;;;;;5049875;28;20041;-72
2021/03/11 00:21:44;;;;;;;21.33;9.57;;;3.50;99.90;;;;;;5048791;28;20585;-72
2021/03/11 00:24:09;;;;;;;22.90;10.40;;;3.60;99.90;;;;;;5048049;28;20028;-72
2021/03/11 00:26:35;;;;;;;24.42;9.90;;;3.60;99.90;;;;;;5050715;28;20097;-72
2021/03/11 00:29:01;;;;;;;24.85;9.77;;;3.60;99.90;;;;;;5050249;28;20040;-72
2021/03/11 00:31:26;;;;;;;21.13;9.15;;;3.60;99.90;;;;;;5050699;28;20071;-72
2021/03/11 00:33:52;;;;;;;21.63;8.80;;;3.60;99.90;;;;;;5051371;28;20033;-72
2021/03/11 00:36:18;;;;;;;21.58;10.07;;;3.60;99.90;;;;;;5050986;28;20453;-72
2021/03/11 00:38:43;;;;;;;22.52;9.95;;;3.60;99.90;;;;;;5050931;28;20040;-72
2021/03/11 00:41:10;;;;;;;20.00;9.57;;;3.60;99.90;;;;;;5050714;28;20033;-72
2021/03/11 00:43:36;;;;;;;20.63;8.82;;;3.60;99.90;;;;;;5049810;28;20037;-72
2021/03/11 00:46:02;;;;;;;22.77;9.50;;;3.70;99.90;;;;;;5050884;28;20025;-72
2021/03/11 00:48:28;;;;;;;23.40;10.23;;;3.70;99.90;;;;;;5050816;28;20059;-72
2021/03/11 00:50:54;;;;;;;25.02;10.57;;;3.70;99.90;;;;;;5050510;28;20492;-72
2021/03/11 00:53:20;;;;;;;23.30;9.75;;;3.70;99.90;;;;;;5045663;28;20116;-72
2021/03/11 00:55:45;;;;;;;22.92;9.50;;;3.70;99.90;;;;;;5050697;28;20029;-72
2021/03/11 00:58:11;;;;;;;23.10;9.35;;;3.70;99.90;;;;;;5050252;28;20396;-72
2021/03/11 01:00:38;;;;;;;21.75;9.70;;;3.70;99.90;;;;;;5048976;28;20123;-72
2021/03/11 01:03:14;;;;;;;24.77;9.95;;;3.70;99.90;;;;;;5047354;28;20089;-72
2021/03/11 01:05:55;;;;;;;22.42;10.07;;;3.60;99.90;;;;;;5083152;28;20029;-72
2021/03/11 01:08:33;;;;;;;25.48;10.70;;;3.60;99.90;;;;;;5047952;28;20510;-73
2021/03/11 01:10:59;;;;;;;25.58;11.35;;;3.50;99.90;;;;;;5050243;28;20061;-72
2021/03/11 01:13:25;;;;;;;26.75;11.10;;;3.50;99.90;;;;;;5050644;28;20041;-72
2021/03/11 01:15:51;;;;;;;26.13;11.25;;;3.50;99.90;;;;;;5050609;28;20500;-72
2021/03/11 01:18:17;;;;;;;22.35;10.85;;;3.50;99.90;;;;;;5050141;28;20029;-72
2021/03/11 01:20:43;;;;;;;26.75;11.40;;;3.40;99.90;;;;;;5048665;28;20642;-72
2021/03/11 01:23:09;;;;;;;20.27;8.88;;;3.40;99.90;;;;;;5050346;28;20040;-72
2021/03/11 01:25:34;;;;;;;25.67;10.13;;;3.30;99.90;;;;;;5049695;28;20025;-72
2021/03/11 01:28:00;;;;;;;23.30;10.50;;;3.30;99.90;;;;;;5049230;28;20032;-72
2021/03/11 01:30:26;;;;;;;25.40;10.88;;;3.30;99.90;;;;;;5049191;28;20625;-72
2021/03/11 01:32:52;;;;;;;22.40;10.98;;;3.30;99.90;;;;;;5048831;28;20116;-72
2021/03/11 01:35:17;;;;;;;25.42;10.68;;;3.40;99.90;;;;;;5049493;28;20033;-72
2021/03/11 01:37:43;;;;;;;25.58;10.82;;;3.40;99.90;;;;;;5049363;28;20490;-72
2021/03/11 01:40:09;;;;;;;24.33;11.07;;;3.40;99.90;;;;;;5048271;28;20036;-72
2021/03/11 01:42:36;;;;;;;25.23;10.65;;;3.50;99.90;;;;;;5049642;28;20052;-72
2021/03/11 01:45:06;;;;;;;29.90;10.70;;;3.50;99.90;;;;;;5050270;28;20036;-72
2021/03/11 01:47:32;;;;;;;22.48;10.68;;;3.50;99.90;;;;;;5049870;28;20102;-72
2021/03/11 01:49:57;;;;;;;23.90;11.20;;;3.40;99.90;;;;;;5049634;28;20029;-72
2021/03/11 01:52:23;;;;;;;25.70;11.40;;;3.50;99.90;;;;;;5040039;28;20043;-72
2021/03/11 01:54:49;;;;;;;24.90;10.90;;;3.50;99.90;;;;;;5048962;28;20037;-72
2021/03/11 01:57:15;;;;;;;24.85;10.85;;;3.50;99.90;;;;;;5049277;28;20033;-72
2021/03/11 01:59:41;;;;;;;25.65;9.38;;;3.50;99.90;;;;;;5047326;28;20040;-72
2021/03/11 02:02:07;;;;;;;24.05;10.68;;;3.50;99.90;;;;;;5036605;28;20065;-72
2021/03/11 02:04:32;;;;;;;23.88;10.45;;;3.50;99.90;;;;;;5029936;28;20065;-72
2021/03/11 02:06:58;;;;;;;20.13;10.45;;;3.50;99.90;;;;;;5044799;28;20038;-72
2021/03/11 02:09:24;;;;;;;25.70;11.23;;;3.60;99.90;;;;;;5030103;28;20052;-72
2021/03/11 02:12:10;;;;;;;24.70;11.30;;;3.60;99.90;;;;;;5029780;28;20400;-72
2021/03/11 02:14:59;;;;;;;28.10;10.70;;;3.60;99.90;;;;;;5030045;28;20057;-72
2021/03/11 02:17:31;;;;;;;25.52;10.82;;;3.60;99.90;;;;;;5029468;28;20574;-72
2021/03/11 02:20:10;;;;;;;19.48;9.35;;;3.60;99.90;;;;;;5031577;28;20018;-72
2021/03/11 02:22:54;;;;;;;23.33;10.00;;;3.70;99.90;;;;;;5033421;28;20116;-72
2021/03/11 02:25:28;;;;;;;25.35;10.38;;;3.70;99.90;;;;;;5033762;28;20724;-72
2021/03/11 02:28:10;;;;;;;25.17;11.57;;;3.70;99.90;;;;;;5065407;28;20179;-72
2021/03/11 02:30:37;;;;;;;24.95;10.05;;;3.80;99.90;;;;;;5032083;28;20034;-72
2021/03/11 02:33:07;;;;;;;24.02;10.13;;;3.70;99.90;;;;;;5033759;28;20029;-72
2021/03/11 02:35:34;;;;;;;21.13;10.07;;;3.80;99.90;;;;;;5065729;28;20037;-72
2021/03/11 02:38:01;;;;;;;20.42;10.27;;;3.80;99.90;;;;;;5032945;28;20071;-72
2021/03/11 02:40:30;;;;;;;23.42;10.23;;;3.80;99.90;;;;;;5033308;28;20437;-72
2021/03/11 02:42:57;;;;;;;24.83;10.90;;;3.70;99.90;;;;;;5033495;28;20029;-72
2021/03/11 02:45:27;;;;;;;21.88;10.32;;;3.70;99.90;;;;;;5033430;28;20105;-72
2021/03/11 02:47:55;;;;;;;25.10;11.07;;;3.80;99.90;;;;;;5064999;28;20021;-72
2021/03/11 02:50:21;;;;;;;25.48;11.30;;;3.80;99.90;;;;;;5033107;28;20037;-72
2021/03/11 02:52:48;;;;;;;24.30;10.88;;;3.80;99.90;;;;;;5033098;28;20037;-72
2021/03/11 02:55:15;;;;;;;27.70;10.80;;;3.80;99.90;;;;;;5033356;28;20038;-72
2021/03/11 02:57:42;;;;;;;20.38;9.68;;;3.70;99.90;;;;;;5064692;28;20160;-72
2021/03/11 03:00:11;;;;;;;21.67;10.30;;;3.70;99.90;;;;;;5033360;28;20045;-72
2021/03/11 03:02:40;;;;;;;24.00;11.25;;;3.80;99.90;;;;;;5079291;28;20505;-72
2021/03/11 03:05:08;;;;;;;24.10;10.30;;;3.80;99.90;;;;;;5052966;28;20048;-72
2021/03/11 03:07:36;;;;;;;24.80;10.95;;;3.80;99.90;;;;;;5050863;28;20025;-72
2021/03/11 03:10:06;;;;;;;24.17;10.70;;;3.80;99.90;;;;;;5052820;28;20033;-72
2021/03/11 03:12:36;;;;;;;22.23;11.25;;;3.80;99.90;;;;;;5052412;28;20389;-72
2021/03/11 03:15:03;;;;;;;26.65;11.68;;;3.80;99.90;;;;;;5053041;28;20090;-72
2021/03/11 03:17:30;;;;;;;27.45;11.88;;;3.70;99.90;;;;;;5052229;28;20040;-72
2021/03/11 03:19:57;;;;;;;25.38;11.20;;;3.70;99.90;;;;;;5052475;28;20055;-72
2021/03/11 03:22:23;;;;;;;30.30;12.50;;;3.70;99.90;;;;;;5052056;28;20102;-72
2021/03/11 03:24:49;;;;;;;24.83;11.38;;;3.70;99.90;;;;;;5051336;28;20112;-72
2021/03/11 03:27:17;;;;;;;26.60;11.73;;;3.70;99.90;;;;;;5046681;28;20458;-72
2021/03/11 03:29:43;;;;;;;28.70;11.60;;;3.70;99.90;;;;;;5040352;28;20033;-72
2021/03/11 03:32:10;;;;;;;27.10;11.48;;;3.70;99.90;;;;;;5048812;28;20025;-72
2021/03/11 03:34:36;;;;;;;26.77;11.52;;;3.70;99.90;;;;;;5052051;28;20165;-72
2021/03/11 03:37:02;;;;;;;28.63;12.35;;;3.60;99.90;;;;;;5051482;28;20071;-72
2021/03/11 03:39:28;;;;;;;29.33;11.70;;;3.70;99.90;;;;;;5049830;28;20036;-72
2021/03/11 03:41:56;;;;;;;25.40;10.48;;;3.70;99.90;;;;;;5043562;28;20043;-72
2021/03/11 03:44:25;;;;;;;26.23;11.90;;;3.60;99.90;;;;;;5051689;28;20033;-72
2021/03/11 03:46:52;;;;;;;25.50;11.07;;;3.60;99.90;;;;;;5051469;28;20064;-72
2021/03/11 03:49:18;;;;;;;28.10;11.73;;;3.50;99.90;;;;;;5051981;28;20533;-72
2021/03/11 03:51:47;;;;;;;30.40;12.20;;;3.50;99.90;;;;;;5047122;28;20025;-72
2021/03/11 03:54:22;;;;;;;22.67;10.98;;;3.50;99.90;;;;;;5051903;28;20112;-72
2021/03/11 03:56:55;;;;;;;25.30;10.65;;;3.50;99.90;;;;;;5051281;28;20029;-72
2021/03/11 03:59:24;;;;;;;26.80;11.73;;;3.50;99.90;;;;;;5051849;28;20037;-72
2021/03/11 04:01:56;;;;;;;27.05;11.80;;;3.40;99.90;;;;;;5048345;28;20490;-72
2021/03/11 04:04:24;;;;;;;23.80;11.50;;;3.40;99.90;;;;;;5051583;28;20021;-72
2021/03/11 04:06:51;;;;;;;23.92;10.60;;;3.40;99.90;;;;;;5050999;28;20029;-72
2021/03/11 04:09:17;;;;;;;25.23;11.15;;;3.40;99.90;;;;;;5051264;28;20110;-72
2021/03/11 04:11:45;;;;;;;23.67;10.77;;;3.40;99.90;;;;;;5051137;28;20021;-72
2021/03/11 04:14:11;;;;;;;25.08;10.43;;;3.50;99.90;;;;;;5051848;28;20768;-72
2021/03/11 04:16:39;;;;;;;23.63;10.43;;;3.40;99.90;;;;;;5050022;28;20521;-72
2021/03/11 04:19:05;;;;;;;28.25;12.45;;;3.50;99.90;;;;;;5051449;28;20033;-72
2021/03/11 04:21:33;;;;;;;29.67;11.90;;;3.40;99.90;;;;;;5051010;28;20047;-72
2021/03/11 04:24:00;;;;;;;27.45;11.68;;;3.50;99.90;;;;;;5051510;28;20041;-72
2021/03/11 04:26:25;;;;;;;26.75;11.73;;;3.50;99.90;;;;;;5049090;28;20031;-72
2021/03/11 04:28:51;;;;;;;27.33;10.73;;;3.40;99.90;;;;;;5051241;28;20104;-72
2021/03/11 04:31:18;;;;;;;22.17;10.52;;;3.40;99.90;;;;;;5048017;28;20052;-72
2021/03/11 04:33:44;;;;;;;24.83;11.07;;;3.40;99.90;;;;;;5049655;28;20020;-72
2021/03/11 04:36:11;;;;;;;24.88;11.82;;;3.50;99.90;;;;;;5050625;28;20029;-72
2021/03/11 04:38:38;;;;;;;22.48;10.10;;;3.50;99.90;;;;;;5050613;28;20043;-72
2021/03/11 04:41:06;;;;;;;26.88;11.63;;;3.50;99.90;;;;;;5050430;28;20125;-72
2021/03/11 04:43:32;;;;;;;27.30;11.52;;;3.50;99.90;;;;;;5050767;28;20618;-72
2021/03/11 04:45:58;;;;;;;23.88;10.75;;;3.50;99.90;;;;;;5050674;28;20036;-72
2021/03/11 04:48:26;;;;;;;28.05;11.25;;;3.50;99.90;;;;;;5050038;28;20025;-72
2021/03/11 04:50:52;;;;;;;24.55;10.98;;;3.40;99.90;;;;;;5050338;28;20035;-72
2021/03/11 04:53:21;;;;;;;27.17;12.00;;;3.30;99.90;;;;;;5050983;28;20099;-72
2021/03/11 04:55:47;;;;;;;25.45;10.55;;;3.40;99.90;;;;;;5049219;28;20036;-73
2021/03/11 04:58:14;;;;;;;28.48;12.75;;;3.30;99.90;;;;;;5049845;28;20032;-73
2021/03/11 05:00:51;;;;;;;24.48;11.43;;;3.20;99.90;;;;;;5049079;28;20119;-73
2021/03/11 05:03:17;;;;;;;26.40;11.02;;;3.20;99.90;;;;;;5049683;28;20033;-73
2021/03/11 05:05:44;;;;;;;23.65;10.63;;;3.10;99.90;;;;;;5050589;28;20044;-73
2021/03/11 05:08:11;;;;;;;24.33;11.50;;;3.10;99.90;;;;;;5050408;28;20405;-73
2021/03/11 05:10:38;;;;;;;22.25;9.90;;;3.00;99.90;;;;;;5050099;28;20028;-73
2021/03/11 05:13:04;;;;;;;16.38;8.45;;;3.00;99.90;;;;;;5050725;28;20132;-73
2021/03/11 05:15:30;;;;;;;16.48;7.90;;;3.10;99.90;;;;;;5050265;28;20115;-73
2021/03/11 05:17:56;;;;;;;14.32;7.25;;;3.20;99.90;;;;;;5049700;28;20396;-73
2021/03/11 05:20:24;;;;;;;15.77;7.95;;;3.40;99.90;;;;;;5043452;28;20438;-73
2021/03/11 05:22:50;;;;;;;12.25;6.60;;;3.50;99.90;;;;;;5082266;28;20082;-73
2021/03/11 05:25:15;;;;;;;15.02;7.68;;;3.70;99.90;;;;;;5050406;28;20021;-73
2021/03/11 05:27:41;;;;;;;18.42;8.27;;;3.80;99.90;;;;;;5049898;28;20036;-73
2021/03/11 05:30:10;;;;;;;15.18;7.60;;;3.90;99.90;;;;;;5049932;28;20483;-73
2021/03/11 05:32:35;;;;;;;18.10;8.45;;;3.90;99.90;;;;;;5048488;28;20041;-73
2021/03/11 05:35:02;;;;;;;20.25;9.38;;;3.90;99.90;;;;;;5044876;28;20139;-73
2021/03/11 05:37:28;;;;;;;20.98;9.10;;;3.90;99.90;;;;;;5045416;28;20041;-73
2021/03/11 05:39:54;;;;;;;20.55;8.60;;;3.80;99.90;;;;;;5082304;28;20032;-73
2021/03/11 05:42:20;;;;;;;20.08;9.88;;;3.80;99.90;;;;;;5031653;28;20458;-73
2021/03/11 05:44:46;;;;;;;22.95;10.57;;;3.70;99.90;;;;;;5050294;28;20041;-73
2021/03/11 05:47:14;;;;;;;17.77;8.73;;;3.70;99.90;;;;;;5049429;28;20029;-73
2021/03/11 05:49:41;;;;;;;15.80;7.97;;;3.60;99.90;;;;;;5050079;28;20538;-73
2021/03/11 05:52:11;;;;;;;15.68;7.13;;;3.50;99.90;;;;;;5049709;28;20518;-73
2021/03/11 05:54:38;;;;;;;18.45;8.70;;;3.60;99.90;;;;;;5051370;28;20037;-73
2021/03/11 05:57:05;;;;;;;17.75;8.35;;;3.60;99.90;;;;;;5053998;28;20032;-73
2021/03/11 05:59:32;;;;;;;16.63;7.78;;;3.60;99.90;;;;;;5054416;28;20441;-73
2021/03/11 06:02:07;;;;;;;15.10;6.72;;;3.60;99.90;;;;;;5053485;28;20075;-73
2021/03/11 06:04:36;;;;;;;13.30;6.67;;;3.60;99.90;;;;;;5054023;28;20036;-73
2021/03/11 06:07:05;;;;;;;15.70;8.20;;;3.70;99.90;;;;;;5052478;28;20271;-74
2021/03/11 06:09:31;;;;;;;14.57;7.38;;;3.80;99.90;;;;;;5053801;28;20071;-74
2021/03/11 06:11:58;;;;;;;16.27;7.95;;;3.90;99.90;;;;;;5053389;28;20086;-74
2021/03/11 06:14:27;;;;;;;14.43;7.35;;;4.00;99.90;;;;;;5053884;28;20056;-74
2021/03/11 06:17:02;;;;;;;14.45;7.25;;;4.00;99.90;;;;;;5052898;28;20029;-74
2021/03/11 06:19:28;;;;;;;15.05;7.18;;;4.10;99.90;;;;;;5053974;28;20090;-74
2021/03/11 06:21:54;;;;;;;15.15;7.78;;;4.10;99.90;;;;;;5053149;28;20025;-74
2021/03/11 06:24:24;;;;;;;17.05;7.15;;;4.10;99.90;;;;;;5053799;28;20120;-74
2021/03/11 06:26:50;;;;;;;12.68;7.55;;;4.10;99.90;;;;;;5053112;28;20472;-74
2021/03/11 06:29:23;;;;;;;13.25;7.40;;;4.10;99.90;;;;;;5052561;28;20082;-74
2021/03/11 06:31:48;;;;;;;13.48;7.13;;;4.10;99.90;;;;;;5049368;28;20018;-74
2021/03/11 06:34:20;;;;;;;15.40;7.50;;;4.10;99.90;;;;;;5052923;28;20145;-73
2021/03/11 06:36:46;;;;;;;14.73;7.35;;;4.10;99.90;;;;;;5048966;28;20460;-74
2021/03/11 06:39:29;;;;;;;15.40;7.35;;;4.10;99.90;;;;;;5053124;28;20036;-74
2021/03/11 06:41:56;;;;;;;15.18;7.47;;;4.20;99.90;;;;;;5052633;28;20021;-74
2021/03/11 06:44:39;;;;;;;15.63;7.57;;;4.20;99.90;;;;;;5044851;28;20048;-74
2021/03/11 06:47:15;;;;;;;16.38;7.88;;;4.20;99.90;;;;;;5052038;28;20029;-74
2021/03/11 06:49:57;;;;;;;17.67;7.95;;;4.40;99.90;;;;;;5053118;28;20024;-74
2021/03/11 06:52:23;;;;;;;16.83;7.68;;;4.50;99.90;;;;;;5032604;28;20084;-74
2021/03/11 06:55:07;;;;;;;14.82;7.78;;;4.60;99.90;;;;;;5033217;28;20037;-74
2021/03/11 06:57:35;;;;;;;16.90;7.55;;;4.60;99.90;;;;;;5032664;28;20051;-73
2021/03/11 07:00:18;;;;;;;19.23;8.48;;;4.70;99.90;;;;;;5033186;28;20041;-74
2021/03/11 07:02:53;;;;;;;14.65;7.10;;;4.70;99.90;;;;;;5047262;28;20060;-74
2021/03/11 07:05:21;;;;;;;15.45;7.13;;;4.70;99.90;;;;;;5052990;28;20025;-74
2021/03/11 07:07:48;;;;;;;16.27;7.72;;;4.80;99.90;;;;;;5052328;28;20064;-74
2021/03/11 07:10:27;;;;;;;14.80;7.75;;;4.90;99.90;;;;;;5052744;28;20079;-73
2021/03/11 07:12:59;;;;;;;12.52;6.97;;;5.00;99.90;;;;;;5052486;28;20619;-74
2021/03/11 07:15:28;;;;;;;14.70;7.95;;;5.00;99.90;;;;;;5052479;28;20528;-73
2021/03/11 07:17:54;;;;;;;13.73;6.65;;;5.10;99.90;;;;;;5052358;28;20132;-73
2021/03/11 07:20:23;;;;;;;14.00;7.50;;;5.10;99.90;;;;;;5052621;28;20403;-73
2021/03/11 07:23:09;;;;;;;16.77;6.78;;;5.10;99.90;;;;;;5052078;28;20122;-73
2021/03/11 07:25:35;;;;;;;;;;;5.10;99.90;;;;;;5053137;28;20388;-73
2021/03/11 07:28:02;;;;;;;;;;;5.20;99.90;;;;;;5052370;28;20015;-73
2021/03/11 07:30:30;;;;;;;14.45;6.88;;;5.20;99.90;;;;;;5051939;28;20390;-74
2021/03/11 07:33:03;;;;;;;16.98;7.65;;;5.20;99.90;;;;;;5052200;28;20037;-74
2021/03/11 07:35:32;;;;;;;16.20;6.85;;;5.20;99.90;;;;;;5052421;28;20037;-74
2021/03/11 07:38:02;;;;;;;17.13;7.88;;;5.20;99.90;;;;;;5051667;28;20512;-74
2021/03/11 07:40:32;;;;;;;12.20;7.28;;;5.30;99.90;;;;;;5051908;28;20601;-73
2021/03/11 07:42:59;;;;;;;19.35;7.40;;;5.30;99.90;;;;;;5052375;28;20140;-73
2021/03/11 07:45:25;;;;;;;15.93;8.18;;;5.30;99.90;;;;;;5051983;28;20099;-73
2021/03/11 07:47:51;;;;;;;13.20;6.82;;;5.40;99.90;;;;;;5051491;28;20108;-74
2021/03/11 07:50:17;;;;;;;13.65;7.68;;;5.40;99.90;;;;;;5051900;28;20040;-73
2021/03/11 07:52:43;;;;;;;13.88;7.38;;;5.40;99.90;;;;;;5051400;28;20033;-73
2021/03/11 07:55:10;;;;;;;15.80;7.40;;;5.50;99.90;;;;;;5050805;28;20041;-74
2021/03/11 07:57:43;;;;;;;15.18;7.15;;;5.50;99.90;;;;;;5051370;28;20055;-73
2021/03/11 08:00:10;;;;;;;13.68;7.10;;;5.50;99.90;;;;;;5052050;28;20120;-74
2021/03/11 08:02:42;;;;;;;12.35;7.20;;;5.60;99.90;;;;;;5049074;28;20033;-73
2021/03/11 08:05:11;;;;;;;14.15;7.05;;;5.60;99.90;;;;;;5051904;28;20485;-73
2021/03/11 08:07:37;;;;;;;14.18;7.45;;;5.60;99.90;;;;;;5051297;28;20021;-73
2021/03/11 08:10:19;;;;;;;13.65;7.70;;;5.70;99.90;;;;;;5051600;28;20033;-74
2021/03/11 08:12:44;;;;;;;16.60;7.88;;;5.70;99.90;;;;;;5051203;28;20045;-74
2021/03/11 08:15:16;;;;;;;17.33;8.35;;;5.80;99.90;;;;;;5050144;28;20037;-73
2021/03/11 08:17:47;;;;;;;13.73;7.22;;;5.80;99.90;;;;;;5050247;28;20155;-74
2021/03/11 08:20:19;;;;;;;17.35;7.97;;;5.80;99.90;;;;;;5051116;28;20055;-73
2021/03/11 08:22:51;;;;;;;14.60;7.18;;;5.90;99.90;;;;;;5050838;28;20036;-73
2021/03/11 08:25:36;;;;;;;13.13;7.03;;;5.90;99.90;;;;;;5051613;28;20071;-73
2021/03/11 08:28:23;;;;;;;16.75;7.80;;;6.00;99.90;;;;;;5050731;28;20079;-73
2021/03/11 08:31:03;;;;;;;12.88;7.43;;;6.10;99.90;;;;;;5050428;28;20125;-73
2021/03/11 08:33:28;;;;;;;15.48;7.25;;;6.20;99.90;;;;;;5049838;28;20037;-74
2021/03/11 08:35:56;;;;;;;12.75;6.93;;;6.30;99.90;;;;;;5051317;28;20036;-74
2021/03/11 08:38:26;;;;;;;14.50;7.15;;;6.40;99.90;;;;;;5050529;28;20029;-74
2021/03/11 08:41:00;;;;;;;16.38;7.15;;;6.50;99.90;;;;;;5050473;28;20100;-73
2021/03/11 08:43:50;;;;;;;16.55;7.28;;;6.60;99.90;;;;;;5050905;28;20044;-73
2021/03/11 08:46:18;;;;;;;14.23;6.90;;;6.60;99.90;;;;;;5047654;28;20037;-74
2021/03/11 08:48:49;;;;;;;11.38;6.22;;;6.60;99.90;;;;;;5050792;28;20111;-73
2021/03/11 08:51:18;;;;;;;13.35;6.75;;;6.60;99.90;;;;;;5050275;28;20061;-73
2021/03/11 08:53:52;;;;;;;14.73;6.30;;;6.60;99.90;;;;;;5049707;28;20506;-73
2021/03/11 08:56:18;;;;;;;13.23;6.40;;;6.70;99.90;;;;;;5050475;28;20035;-73
2021/03/11 08:59:00;;;;;;;12.88;6.00;;;6.70;99.90;;;;;;5050695;28;20021;-74
2021/03/11 09:01:31;;;;;;;9.00;5.22;;;6.70;99.90;;;;;;5049487;28;20029;-74
2021/03/11 09:04:01;;;;;;;12.38;5.60;;;6.80;99.90;;;;;;5050620;28;20036;-74
2021/03/11 09:07:04;;;;;;;9.93;5.45;;;6.90;99.90;;;;;;5050172;28;20107;-74
2021/03/11 09:09:40;;;;;;;10.90;5.40;;;7.00;99.90;;;;;;5007969;28;20038;-73
2021/03/11 09:12:12;;;;;;;10.90;5.18;;;7.00;99.90;;;;;;5044343;28;20053;-73
2021/03/11 09:14:41;;;;;;;11.77;5.47;;;7.10;99.90;;;;;;5081402;28;20025;-73
2021/03/11 09:17:15;;;;;;;8.00;4.25;;;7.20;99.90;;;;;;5046436;28;20471;-74
2021/03/11 09:19:54;;;;;;;7.53;4.75;;;7.20;99.90;;;;;;5050018;28;20408;-73
2021/03/11 09:22:23;;;;;;;7.82;4.45;;;7.20;99.90;;;;;;5081570;28;20441;-73
2021/03/11 09:24:58;;;;;;;7.10;4.45;;;7.30;99.90;;;;;;5049224;28;20017;-73
2021/03/11 09:27:28;;;;;;;7.40;4.40;;;7.40;99.90;;;;;;5045005;28;20045;-73
2021/03/11 09:29:58;;;;;;;9.07;4.15;;;7.40;99.90;;;;;;5047615;28;20035;-73
2021/03/11 09:32:32;;;;;;;6.30;3.95;;;7.50;99.90;;;;;;5049136;28;20033;-73
2021/03/11 09:35:00;;;;;;;6.30;4.07;;;7.50;99.90;;;;;;5047557;28;20040;-73
2021/03/11 09:37:46;;;;;;;6.20;3.85;;;7.60;99.90;;;;;;5049348;28;20032;-73
2021/03/11 09:40:21;;;;;;;5.68;3.97;;;7.60;99.90;;;;;;5049478;28;20032;-73
2021/03/11 09:43:00;;;;;;;8.18;3.50;;;7.60;99.90;;;;;;5042239;28;20116;-73
2021/03/11 09:45:34;;;;;;;8.43;4.00;;;7.70;99.90;;;;;;5047174;28;20383;-73
2021/03/11 09:48:10;;;;;;;10.50;3.83;;;7.60;99.90;;;;;;5045420;28;20031;-73
2021/03/11 09:50:38;;;;;;;9.57;3.72;;;7.60;99.90;;;;;;5045336;28;20025;-73
2021/03/11 09:53:04;;;;;;;6.35;3.88;;;7.70;99.90;;;;;;5046063;28;20025;-73
2021/03/11 09:55:30;;;;;;;7.50;4.10;;;7.70;99.90;;;;;;5043814;28;20399;-74
2021/03/11 09:57:57;;;;;;;6.45;3.70;;;7.60;99.90;;;;;;5046949;28;20706;-73
2021/03/11 10:00:23;;;;;;;6.07;3.85;;;7.60;99.90;;;;;;5042285;28;20068;-73
2021/03/11 10:02:52;;;;;;;7.22;3.83;;;7.70;99.90;;;;;;5035093;28;20044;-74
2021/03/11 10:05:19;;;;;;;6.00;3.42;;;7.70;99.90;;;;;;5043692;28;20033;-73
2021/03/11 10:07:56;;;;;;;6.32;3.72;;;7.70;99.90;;;;;;5042359;28;20640;-74
2021/03/11 10:10:23;;;;;;;6.30;3.72;;;7.70;99.90;;;;;;5038629;28;20029;-74
2021/03/11 10:12:49;;;;;;;8.35;4.20;;;7.70;99.90;;;;;;5045027;28;20085;-74
2021/03/11 10:15:17;;;;;;;6.38;3.78;;;7.80;99.90;;;;;;5039542;28;20025;-74
2021/03/11 10:17:44;;;;;;;5.80;3.33;;;7.90;99.90;;;;;;5041086;28;20100;-74
2021/03/11 10:20:28;;;;;;;9.07;3.53;;;7.90;99.90;;;;;;5025886;28;20045;-73
2021/03/11 10:23:16;;;;;;;5.13;3.15;;;8.00;99.90;;;;;;5042464;28;20029;-74
2021/03/11 10:25:42;;;;;;;7.07;4.00;;;8.00;99.90;;;;;;5044274;28;20025;-74
2021/03/11 10:28:07;;;;;;;7.75;3.53;;;8.10;99.90;;;;;;5044684;28;20025;-74
2021/03/11 10:30:34;;;;;;;5.43;3.60;;;8.10;99.90;;;;;;5045480;28;20036;-74
2021/03/11 10:33:04;;;;;;;8.07;3.80;;;8.10;99.90;;;;;;5045161;28;20029;-73
2021/03/11 10:35:32;;;;;;;7.20;3.40;;;8.20;99.90;;;;;;5077556;28;20029;-74
2021/03/11 10:38:17;;;;;;;6.03;3.60;;;8.20;99.90;;;;;;5041344;28;20074;-74
2021/03/11 10:40:44;;;;;;;5.57;3.42;;;8.40;99.90;;;;;;5042160;28;20036;-73
2021/03/11 10:43:21;;;;;;;5.70;3.55;;;8.50;99.90;;;;;;5049151;28;20029;-73
2021/03/11 10:45:48;;;;;;;5.72;3.28;;;8.60;99.90;;;;;;5049607;28;20033;-73
2021/03/11 10:48:14;;;;;;;5.93;3.50;;;8.70;99.90;;;;;;5047644;28;20021;-73
2021/03/11 10:50:49;;;;;;;6.03;3.63;;;8.70;99.90;;;;;;5071863;28;20025;-73
2021/03/11 10:53:16;;;;;;;4.93;2.90;;;8.90;99.90;;;;;;5045429;28;20497;-73
2021/03/11 10:55:44;;;;;;;6.07;3.17;;;8.90;99.90;;;;;;5044429;28;20025;-73
2021/03/11 10:58:26;;;;;;;6.70;3.90;;;9.10;99.90;;;;;;5044878;28;20095;-73
2021/03/11 11:01:27;;;;;;;5.78;3.17;;;9.10;99.90;;;;;;5042358;28;20095;-73
2021/03/11 11:03:55;;;;;;;5.35;3.40;;;9.10;99.90;;;;;;5022060;28;20098;-74
2021/03/11 11:06:24;;;;;;;6.30;3.67;;;9.00;99.90;;;;;;5047157;28;20116;-74
2021/03/11 11:08:51;;;;;;;4.63;2.85;;;9.00;99.90;;;;;;5046089;28;20040;-74
2021/03/11 11:11:18;;;;;;;4.57;3.25;;;9.00;99.90;;;;;;5042023;28;20029;-73
2021/03/11 11:13:44;;;;;;;7.97;3.38;;;8.90;99.90;;;;;;5046664;28;20037;-73
2021/03/11 11:16:11;;;;;;;4.40;2.78;;;8.90;99.90;;;;;;5046041;28;20029;-73
2021/03/11 11:18:37;;;;;;;5.95;3.42;;;8.90;99.90;;;;;;5047636;28;20029;-73
2021/03/11 11:21:04;;;;;;;4.68;2.90;;;8.80;99.90;;;;;;5043519;28;20041;-73
2021/03/11 11:23:31;;;;;;;6.18;3.15;;;8.80;99.90;;;;;;5047579;28;20029;-73
2021/03/11 11:25:57;;;;;;;6.22;3.30;;;8.70;99.90;;;;;;5040962;28;20446;-75
2021/03/11 11:28:22;;;;;;;3.97;2.70;;;8.60;99.90;;;;;;5045481;28;20025;-74
2021/03/11 11:30:48;;;;;;;5.00;3.25;;;8.50;99.90;;;;;;5042920;28;20036;-73
2021/03/11 11:33:14;;;;;;;7.20;3.50;;;8.40;99.90;;;;;;5045499;28;20373;-73
2021/03/11 11:35:40;;;;;;;5.22;3.55;;;8.40;99.90;;;;;;5042288;28;20033;-73
2021/03/11 11:38:06;;;;;;;5.35;3.20;;;8.30;99.90;;;;;;5043891;28;20115;-74
2021/03/11 11:40:31;;;;;;;8.20;4.63;;;8.30;99.90;;;;;;5045748;28;20120;-74
2021/03/11 11:42:58;;;;;;;8.52;4.10;;;8.30;99.90;;;;;;5047878;28;20025;-74
2021/03/11 11:45:24;;;;;;;6.88;4.05;;;8.30;99.90;;;;;;5043596;28;20529;-74
2021/03/11 11:47:50;;;;;;;7.00;4.47;;;8.20;99.90;;;;;;5042531;28;20021;-74
2021/03/11 11:50:16;;;;;;;7.97;4.65;;;8.20;99.90;;;;;;5044099;28;20033;-74
2021/03/11 11:52:42;;;;;;;5.22;3.72;;;8.20;99.90;;;;;;5044153;28;20032;-74
2021/03/11 11:55:10;;;;;;;6.88;4.07;;;8.20;99.90;;;;;;5044794;28;20036;-74
2021/03/11 11:57:40;;;;;;;8.00;4.70;;;8.30;99.90;;;;;;5042110;28;20021;-74
2021/03/11 12:00:09;;;;;;;9.10;4.25;;;8.30;99.90;;;;;;5038820;28;20406;-74
2021/03/11 12:02:34;;;;;;;8.00;4.45;;;8.40;99.90;;;;;;5040487;28;20545;-74
2021/03/11 12:05:00;;;;;;;7.22;4.82;;;8.40;99.90;;;;;;5045104;28;20025;-74
2021/03/11 12:07:26;;;;;;;7.75;4.43;;;8.40;99.90;;;;;;5042075;28;20044;-74
2021/03/11 12:09:52;;;;;;;10.98;5.10;;;8.40;99.90;;;;;;5047172;28;20491;-74
2021/03/11 12:12:18;;;;;;;7.80;4.68;;;8.40;99.90;;;;;;5041498;28;20944;-74
2021/03/11 12:14:44;;;;;;;7.53;4.90;;;8.50;99.90;;;;;;5040110;28;20408;-74
2021/03/11 12:17:10;;;;;;;9.57;4.93;;;8.50;99.90;;;;;;5039624;28;20025;-74
2021/03/11 12:19:35;;;;;;;9.73;5.32;;;8.60;99.90;;;;;;5042876;28;20021;-74
2021/03/11 12:22:01;;;;;;;9.77;5.28;;;8.70;99.90;;;;;;5078943;28;20036;-75
2021/03/11 12:24:27;;;;;;;7.55;4.43;;;8.80;99.90;;;;;;5045905;28;20656;-74
2021/03/11 12:26:53;;;;;;;11.15;5.43;;;8.90;99.90;;;;;;5045622;28;20082;-74
2021/03/11 12:29:19;;;;;;;6.40;4.10;;;9.00;99.90;;;;;;5046265;28;20036;-74
2021/03/11 12:31:46;;;;;;;6.80;4.20;;;9.10;99.90;;;;;;5044218;28;20058;-74
2021/03/11 12:34:13;;;;;;;5.65;3.75;;;9.10;99.90;;;;;;5046288;28;20407;-74
2021/03/11 12:36:39;;;;;;;6.95;3.40;;;9.20;99.90;;;;;;5050205;28;20037;-74
2021/03/11 12:39:06;;;;;;;7.18;3.53;;;9.20;99.90;;;;;;5050135;28;20044;-74
2021/03/11 12:41:32;;;;;;;4.75;2.95;;;9.20;99.90;;;;;;5049991;28;20061;-74
2021/03/11 12:43:58;;;;;;;3.92;2.95;;;9.20;99.90;;;;;;5050606;28;20112;-73
2021/03/11 12:46:24;;;;;;;3.83;2.92;;;9.20;99.90;;;;;;5050044;28;20021;-74
2021/03/11 12:48:50;;;;;;;3.60;2.33;;;9.10;99.90;;;;;;5049746;28;20032;-73
2021/03/11 12:51:17;;;;;;;3.60;2.78;;;9.20;99.90;;;;;;5046300;28;20026;-73
2021/03/11 12:53:43;;;;;;;4.25;2.83;;;9.20;99.90;;;;;;5050478;28;20033;-74
2021/03/11 12:56:09;;;;;;;2.92;2.22;;;9.20;99.90;;;;;;5049735;28;20025;-74
2021/03/11 12:58:34;;;;;;;2.28;2.00;;;9.20;99.90;;;;;;5050110;28;20047;-74